• Join FlightAware (Why Join?)
  • Login
  • US Flag 
04:51AM EST


 

Airport Tracker/Info


-or-


 

Live Flight TrackerFlight Track Log ✈ EJA831 ✈ 27-Mar-2014 ✈ KSGJ - KPBI

Flight Track Log - Related Links

Times and Time Zones

All times are in EDT time to prevent confusion due to time zone crossing. See the EJA831 flight status page for this flight to view local times or setup timezone preferences in your user account.

Time Position Orientation Groundspeed Altitude Reporting Facility
EDT Latitude Longitude Course Direction KTS MPH feet Rate Location/Type
05:22PM 29.9436 -81.3200 91° East 175 201 1,800  Level Jacksonville Center
05:23PM 29.9433 -81.2842 108° East 182 209 2,000 60 Climbing Jacksonville Center
05:23PM 29.9472 -81.2625 78° East 192 221 1,900 480 Descending Jacksonville Center
05:24PM 29.9528 -81.2194 82° East 193 222 2,500 1,560 Climbing Jacksonville Center
05:24PM 29.9567 -81.1978 78° East 197 227 3,500 3,720 Climbing Jacksonville Center
05:25PM 29.9556 -81.1186 91° East 270 311 7,500 3,660 Climbing Jacksonville Center
05:26PM 29.8803 -81.0983 167° South 220 253 10,900 3,420 Climbing Jacksonville Center
05:27PM 29.7925 -81.1025 182° South 238 274 14,400 3,300 Climbing Jacksonville Center
05:28PM 29.7086 -81.0728 163° South 285 328 17,600 1,800 Climbing Jacksonville Center
05:29PM 29.6100 -81.0364 162° South 330 380 18,000 180 Climbing Jacksonville Center
05:30PM 29.5150 -80.9692 148° Southeast 375 432 18,000 480 Level Jacksonville Center
05:31PM 29.4264 -80.8992 145° Southeast 381 438 19,000 1,680 Climbing Jacksonville Center
05:32PM 29.3236 -80.8728 167° South 381 438 21,400 1,500 Climbing Jacksonville Center
05:33PM 29.2186 -80.8392 164° South 381 438 22,000 240 Climbing Jacksonville Center
05:34PM 29.0936 -80.7986 164° South 390 449 22,000  Level Miami Center
05:35PM 28.9839 -80.7664 166° South 406 467 22,000  Level Miami Center
05:36PM 28.8889 -80.7369 165° South 406 467 22,000  Level Miami Center
05:37PM 28.7833 -80.7047 165° South 401 461 22,000 -120 Level Miami Center
05:38PM 28.6761 -80.6586 159° South 388 447 21,800 -900 Descending Miami Center
05:39PM 28.5797 -80.5892 148° Southeast 395 455 20,200 -1,560 Descending Miami Center
05:40PM 28.4875 -80.5247 148° Southeast 400 460 18,800 -1,320 Descending Miami Center
05:41PM 28.4056 -80.4678 149° Southeast 395 455 17,600 -1,200 Descending Miami Center
05:42PM 28.3319 -80.4111 146° Southeast 395 455 16,400 -1,320 Descending Miami Center
05:43PM 28.2128 -80.3272 148° Southeast 395 455 15,000 -720 Descending Miami Center
05:44PM 28.1225 -80.2633 148° Southeast 384 442 15,000  Level Miami Center
05:45PM 28.0342 -80.1994 147° Southeast 384 442 15,000  Level Miami Center
05:46PM 27.9428 -80.1872 173° South 361 415 15,000  Level Miami Center
05:47PM 27.8447 -80.1775 175° South 361 415 15,000  Level Miami Center
05:48PM 27.7364 -80.1694 176° South 361 415 15,000  Level Miami Center
05:49PM 27.6428 -80.1622 176° South 361 415 15,000 -300 Level Miami Center
05:50PM 27.5553 -80.1550 176° South 333 383 14,500 -1,020 Descending Miami Center
05:51PM 27.4800 -80.1506 177° South 317 365 13,000 -1,620 Descending Miami Center
05:52PM 27.3906 -80.1408 174° South 317 365 11,300 -1,500 Descending Miami Center
05:53PM 27.3031 -80.1361 177° South 298 343 10,000 -660 Descending Miami Center
05:54PM 27.2344 -80.1178 167° South 272 313 10,000 -660 Level Miami Center
05:55PM 27.1814 -80.0672 140° Southeast 248 285 8,700 -1,500 Descending Miami Center
05:56PM 27.1275 -80.0447 160° South 248 285 7,100 -1,620 Descending Miami Center
05:57PM 27.0675 -80.0244 163° South 237 273 5,600 -1,620 Descending Miami Center
05:58PM 27.0031 -80.0017 163° South 226 260 4,000 -840 Descending Miami Center
05:59PM 26.9464 -80.0142 191° South 213 245 4,000  Level Miami Center
06:00PM 26.8914 -80.0453 207° Southwest 220 253 4,000  Level Miami Center
06:02PM 26.8069 -80.0931 222° Southwest  Level FlightAware Approximate
06:09PM 26.6894 -80.1516 110° East  Level FlightAware Approximate
06:10PM 26.6832 -80.0956 110° East  Level Estimated
06:11PM 26.6832 -80.0956 146° Southeast  Level Estimated
06:12PM 26.6832 -80.0956 110° East  Level Estimated
06:13PM 26.6832 -80.0956 146° Southeast  Level Estimated
06:14PM 26.6832 -80.0956 110° East  Level Estimated
06:15PM 26.6832 -80.0956 146° Southeast  Level Estimated
06:16PM 26.6832 -80.0956 110° East  Level Estimated
06:17PM 26.6832 -80.0956 146° Southeast  Level Estimated
06:18PM 26.6832 -80.0956 110° East  Level Estimated
06:19PM 26.6832 -80.0956 146° Southeast  Level Estimated